createdAt,value
2022-10-01T01:24:13.181Z,0.00
2022-10-01T01:24:18.152Z,0.00
2022-10-01T01:25:18.137Z,0.00
2022-10-01T01:26:18.127Z,0.00
2022-10-01T01:27:18.116Z,0.00
2022-10-01T01:28:18.137Z,0.00
2022-10-01T01:29:18.095Z,0.00
2022-10-01T01:30:18.075Z,0.00
2022-10-01T01:31:18.129Z,0.00
2022-10-01T01:32:18.050Z,0.00
2022-10-01T01:33:18.034Z,0.00
2022-10-01T01:34:18.038Z,0.00
2022-10-01T01:35:18.044Z,0.00
2022-10-01T01:36:18.004Z,0.00
2022-10-01T01:37:18.000Z,0.00
2022-10-01T01:38:21.220Z,0.00
2022-10-01T01:39:17.957Z,0.00
2022-10-01T01:40:17.951Z,0.00
2022-10-01T01:41:17.968Z,0.00
2022-10-01T01:42:17.917Z,0.00
2022-10-01T01:43:17.911Z,0.00
2022-10-01T01:44:17.904Z,0.00
2022-10-01T01:45:17.977Z,0.00
2022-10-01T01:46:17.958Z,0.00
2022-10-01T01:47:17.869Z,0.00
2022-10-01T01:48:17.843Z,0.00
2022-10-01T01:49:17.841Z,0.00
2022-10-01T01:50:17.821Z,0.00
2022-10-01T01:51:17.807Z,0.00
2022-10-01T01:52:17.808Z,0.00
2022-10-01T01:53:17.804Z,0.00
2022-10-01T01:54:17.772Z,0.00
2022-10-01T01:55:17.771Z,0.00
2022-10-01T01:56:17.755Z,0.00
2022-10-01T01:57:17.743Z,0.00
2022-10-01T01:58:17.723Z,0.00
2022-10-01T01:59:17.718Z,0.00
2022-10-01T02:00:17.695Z,0.00
2022-10-01T02:01:17.688Z,0.00
2022-10-01T02:02:17.809Z,0.00
2022-10-01T02:03:17.657Z,0.00
2022-10-01T02:04:17.641Z,0.00
2022-10-01T02:05:17.661Z,0.00
2022-10-01T02:06:17.624Z,0.00
2022-10-01T02:07:17.624Z,0.00
2022-10-01T02:08:17.588Z,0.00
2022-10-01T02:09:17.572Z,0.00
2022-10-01T02:10:17.583Z,0.00
2022-10-01T02:11:17.572Z,0.00
2022-10-01T02:12:17.557Z,0.00
2022-10-01T02:13:17.525Z,0.00
2022-10-01T02:14:17.517Z,0.00
2022-10-01T02:15:17.504Z,0.00
2022-10-01T02:16:17.578Z,0.00
2022-10-01T02:17:17.482Z,0.00
2022-10-01T02:18:17.462Z,0.00
2022-10-01T02:19:17.457Z,0.00
2022-10-01T02:20:17.444Z,0.00
2022-10-01T02:21:17.434Z,0.00
2022-10-01T02:22:17.412Z,0.00
2022-10-01T02:23:17.410Z,0.00
2022-10-01T02:24:17.381Z,0.00
2022-10-01T02:25:17.442Z,0.00
2022-10-01T02:26:17.372Z,0.00
2022-10-01T02:27:17.348Z,0.00
2022-10-01T02:28:17.375Z,0.00
2022-10-01T02:29:17.334Z,0.00
2022-10-01T02:30:17.321Z,0.00
2022-10-01T02:31:17.354Z,0.00
2022-10-01T02:32:17.286Z,0.00
2022-10-01T02:33:17.270Z,0.00
2022-10-01T02:34:20.275Z,0.00
2022-10-01T02:35:17.263Z,0.00
2022-10-01T02:36:17.242Z,0.00
2022-10-01T02:37:17.223Z,0.00
2022-10-01T02:38:17.213Z,0.00
2022-10-01T02:39:17.195Z,0.00
2022-10-01T02:40:17.182Z,0.00
2022-10-01T02:41:17.179Z,0.00
2022-10-01T02:42:17.159Z,0.00
2022-10-01T02:43:17.143Z,0.00
2022-10-01T02:44:17.132Z,0.00
2022-10-01T02:45:17.119Z,0.00
2022-10-01T02:46:17.185Z,0.00
2022-10-01T02:47:17.105Z,0.00
2022-10-01T02:48:17.102Z,0.00
2022-10-01T02:49:17.066Z,0.00
2022-10-01T02:50:17.053Z,0.00
2022-10-01T02:51:17.051Z,0.00
2022-10-01T02:52:17.029Z,0.00
2022-10-01T02:53:17.045Z,0.00
2022-10-01T02:54:16.999Z,0.00
2022-10-01T02:55:16.992Z,0.00
2022-10-01T02:56:16.985Z,0.00
2022-10-01T02:57:16.977Z,0.00
2022-10-01T02:58:16.953Z,0.00
2022-10-01T02:59:16.962Z,0.00
2022-10-01T03:00:16.928Z,0.00
2022-10-01T03:01:16.973Z,0.00
2022-10-01T03:02:17.200Z,0.00
2022-10-01T03:03:16.913Z,0.00
2022-10-01T03:04:16.901Z,0.00
2022-10-01T03:05:16.906Z,0.00
2022-10-01T03:06:16.850Z,0.00
2022-10-01T03:07:16.838Z,0.00
2022-10-01T03:08:16.830Z,0.00
2022-10-01T03:09:16.825Z,0.00
2022-10-01T03:10:16.798Z,0.00
2022-10-01T03:11:16.809Z,0.00
2022-10-01T03:12:16.789Z,0.00
2022-10-01T03:13:16.757Z,0.00
2022-10-01T03:14:16.754Z,0.00
2022-10-01T03:15:16.764Z,0.00
2022-10-01T03:16:16.810Z,0.00
2022-10-01T03:17:16.720Z,0.00
2022-10-01T03:18:16.712Z,0.00
2022-10-01T03:19:16.685Z,0.00
2022-10-01T03:20:16.674Z,0.00
2022-10-01T03:21:16.665Z,0.00
2022-10-01T03:22:16.646Z,0.00
2022-10-01T03:23:16.654Z,0.00
2022-10-01T03:24:16.644Z,0.00
2022-10-01T03:25:16.611Z,0.00
2022-10-01T03:26:16.601Z,0.00
2022-10-01T03:27:16.651Z,0.00
2022-10-01T03:28:16.660Z,0.00
2022-10-01T03:29:16.571Z,0.00
2022-10-01T03:30:16.553Z,0.00
2022-10-01T03:31:16.613Z,0.00
2022-10-01T03:32:16.516Z,0.00
2022-10-01T03:33:16.503Z,0.00
2022-10-01T03:34:16.512Z,0.00
2022-10-01T03:35:16.500Z,0.00
2022-10-01T03:36:16.465Z,0.00
2022-10-01T03:37:16.469Z,0.00
2022-10-01T03:38:16.451Z,0.00
2022-10-01T03:39:16.435Z,0.00
2022-10-01T03:40:16.469Z,0.00
2022-10-01T03:41:16.413Z,0.00
2022-10-01T03:42:16.393Z,0.00
2022-10-01T03:43:16.411Z,0.00
2022-10-01T03:44:16.388Z,0.00
2022-10-01T03:45:16.402Z,0.00
2022-10-01T03:46:16.413Z,0.00
2022-10-01T03:47:16.398Z,0.00
2022-10-01T03:48:16.317Z,0.00
2022-10-01T03:49:16.320Z,0.00
2022-10-01T03:50:16.299Z,0.00
2022-10-01T03:51:19.791Z,0.00
2022-10-01T03:52:16.261Z,0.00
2022-10-01T03:53:16.264Z,0.00
2022-10-01T03:54:16.240Z,0.00
2022-10-01T03:55:16.270Z,0.00
2022-10-01T03:56:16.218Z,0.00
2022-10-01T03:57:16.219Z,0.00
2022-10-01T03:58:16.187Z,0.00
2022-10-01T03:59:16.241Z,0.00
2022-10-01T04:00:16.169Z,0.00
2022-10-01T04:01:16.224Z,0.00
2022-10-01T04:02:16.359Z,0.00
2022-10-01T04:03:16.127Z,0.00
2022-10-01T04:04:16.116Z,0.00
2022-10-01T04:05:16.113Z,0.00
2022-10-01T04:06:16.110Z,0.00
2022-10-01T04:07:16.110Z,0.00
2022-10-01T04:08:17.922Z,0.00
2022-10-01T04:09:16.062Z,0.00
2022-10-01T04:10:16.041Z,0.00
2022-10-01T04:11:16.077Z,0.00
2022-10-01T04:12:16.010Z,0.00
2022-10-01T04:13:16.002Z,0.00
2022-10-01T04:14:16.024Z,0.00
2022-10-01T04:15:15.980Z,0.00
2022-10-01T04:16:16.058Z,0.00
2022-10-01T04:17:15.995Z,0.00
2022-10-01T04:18:15.932Z,0.00
2022-10-01T04:19:15.922Z,0.00
2022-10-01T04:20:15.915Z,0.00
2022-10-01T04:21:15.952Z,0.00
2022-10-01T04:22:15.885Z,0.00
2022-10-01T04:23:15.884Z,0.00
2022-10-01T04:24:15.861Z,0.00
2022-10-01T04:25:15.859Z,0.00
2022-10-01T04:26:15.829Z,0.00
2022-10-01T04:27:15.817Z,0.00
2022-10-01T04:28:15.831Z,0.00
2022-10-01T04:29:15.803Z,0.00
2022-10-01T04:30:15.778Z,0.00
2022-10-01T04:31:15.835Z,0.00
2022-10-01T04:32:15.758Z,0.00
2022-10-01T04:33:15.751Z,0.00
2022-10-01T04:34:15.726Z,0.00
2022-10-01T04:35:15.727Z,0.00
2022-10-01T04:36:15.706Z,0.00
2022-10-01T04:37:15.719Z,0.00
2022-10-01T04:38:15.675Z,0.00
2022-10-01T04:39:15.688Z,0.00
2022-10-01T04:40:15.651Z,0.00
2022-10-01T04:41:15.681Z,0.00
2022-10-01T04:42:15.623Z,0.00
2022-10-01T04:43:15.614Z,0.00
2022-10-01T04:44:15.637Z,0.00
2022-10-01T04:45:15.592Z,0.00
2022-10-01T04:46:15.649Z,0.00
2022-10-01T04:47:15.608Z,0.00
2022-10-01T04:48:15.552Z,0.00
2022-10-01T04:49:15.535Z,0.00
2022-10-01T04:50:15.554Z,0.00
2022-10-01T04:51:15.513Z,0.00
2022-10-01T04:52:15.508Z,0.00
2022-10-01T04:53:15.492Z,0.00
2022-10-01T04:54:15.510Z,0.00
2022-10-01T04:55:15.461Z,0.00
2022-10-01T04:56:15.478Z,0.00
2022-10-01T04:57:15.468Z,0.00
2022-10-01T04:58:15.424Z,0.00
2022-10-01T04:59:15.419Z,0.00
2022-10-01T05:00:15.424Z,0.00
2022-10-01T05:01:15.447Z,0.00
2022-10-01T05:02:15.476Z,0.00
2022-10-01T05:03:15.337Z,0.00
2022-10-01T05:04:15.342Z,0.00
2022-10-01T05:05:15.344Z,0.00
2022-10-01T05:06:15.306Z,0.00
2022-10-01T05:07:15.252Z,0.00
2022-10-01T05:08:15.244Z,0.00
2022-10-01T05:09:15.254Z,0.00
2022-10-01T05:10:15.215Z,0.00
2022-10-01T05:11:15.211Z,0.00
2022-10-01T05:12:15.223Z,0.00
2022-10-01T05:13:15.179Z,0.00
2022-10-01T05:14:15.166Z,0.00
2022-10-01T05:15:15.177Z,0.00
2022-10-01T05:16:15.191Z,0.00
2022-10-01T05:17:15.136Z,0.00
2022-10-01T05:18:15.168Z,0.00
2022-10-01T05:19:15.102Z,0.00
2022-10-01T05:20:15.090Z,0.00
2022-10-01T05:21:15.099Z,0.00
2022-10-01T05:22:15.064Z,0.00
2022-10-01T05:23:15.055Z,0.00
2022-10-01T05:24:15.057Z,0.00
2022-10-01T05:25:15.027Z,0.00
2022-10-01T05:26:15.011Z,0.00
2022-10-01T05:27:15.031Z,0.00
2022-10-01T05:28:18.460Z,0.00
2022-10-01T05:29:14.987Z,5.62
2022-10-01T05:30:14.970Z,5.62
2022-10-01T05:31:15.040Z,5.62
2022-10-01T05:32:14.934Z,5.62
2022-10-01T05:33:14.924Z,5.62
2022-10-01T05:34:14.935Z,5.62
2022-10-01T05:35:14.906Z,5.62
2022-10-01T05:36:14.885Z,5.62
2022-10-01T05:37:14.897Z,5.62
2022-10-01T05:38:14.858Z,5.62
2022-10-01T05:39:14.846Z,5.62
2022-10-01T05:40:14.858Z,5.62
2022-10-01T05:41:14.829Z,5.62
2022-10-01T05:42:14.807Z,5.62
2022-10-01T05:43:14.822Z,11.25
2022-10-01T05:44:14.777Z,11.25
2022-10-01T05:45:14.775Z,11.25
2022-10-01T05:46:14.831Z,11.25
2022-10-01T05:47:14.772Z,11.25
2022-10-01T05:48:14.729Z,11.25
2022-10-01T05:49:14.759Z,16.88
2022-10-01T05:50:14.703Z,11.25
2022-10-01T05:51:14.701Z,11.25
2022-10-01T05:52:14.700Z,11.25
2022-10-01T05:53:14.685Z,16.88
2022-10-01T05:54:14.673Z,16.88
2022-10-01T05:55:14.695Z,28.12
2022-10-01T05:56:14.635Z,22.50
2022-10-01T05:57:14.622Z,28.12
2022-10-01T05:58:14.640Z,28.12
2022-10-01T05:59:14.608Z,28.12
2022-10-01T06:00:14.574Z,22.50
2022-10-01T06:01:14.584Z,22.50
2022-10-01T06:02:14.718Z,28.12
2022-10-01T06:03:14.592Z,28.12
2022-10-01T06:04:14.552Z,28.12
2022-10-01T06:05:14.528Z,39.38
2022-10-01T06:06:14.505Z,39.38
2022-10-01T06:07:14.525Z,33.75
2022-10-01T06:08:14.479Z,28.12
2022-10-01T06:09:14.466Z,28.12
2022-10-01T06:10:14.477Z,28.12
2022-10-01T06:11:14.446Z,28.12
2022-10-01T06:12:17.723Z,28.12
2022-10-01T06:13:14.427Z,28.12
2022-10-01T06:14:14.451Z,28.12
2022-10-01T06:15:14.390Z,28.12
2022-10-01T06:16:14.392Z,39.38
2022-10-01T06:17:14.371Z,39.38
2022-10-01T06:18:14.359Z,39.38
2022-10-01T06:19:14.341Z,39.38
2022-10-01T06:20:14.326Z,33.75
2022-10-01T06:21:14.309Z,28.12
2022-10-01T06:22:14.320Z,28.12
2022-10-01T06:23:14.290Z,28.12
2022-10-01T06:24:14.276Z,33.75
2022-10-01T06:25:14.273Z,28.12
2022-10-01T06:26:14.245Z,28.12
2022-10-01T06:27:14.233Z,45.00
2022-10-01T06:28:14.302Z,45.00
2022-10-01T06:29:14.227Z,45.00
2022-10-01T06:30:14.193Z,39.38
2022-10-01T06:31:14.292Z,45.00
2022-10-01T06:32:14.203Z,45.00
2022-10-01T06:33:14.189Z,39.38
2022-10-01T06:34:14.166Z,39.38
2022-10-01T06:35:14.176Z,50.62
2022-10-01T06:36:14.151Z,61.88
2022-10-01T06:37:14.112Z,61.88
2022-10-01T06:38:14.101Z,78.75
2022-10-01T06:39:14.109Z,73.12
2022-10-01T06:40:14.074Z,67.50
2022-10-01T06:41:14.074Z,67.50
2022-10-01T06:42:14.054Z,78.75
2022-10-01T06:43:14.028Z,78.75
2022-10-01T06:44:14.020Z,95.62
2022-10-01T06:45:14.012Z,90.00
2022-10-01T06:46:14.044Z,78.75
2022-10-01T06:47:13.993Z,73.12
2022-10-01T06:48:13.969Z,67.50
2022-10-01T06:49:13.974Z,73.12
2022-10-01T06:50:13.956Z,73.12
2022-10-01T06:51:13.925Z,67.50
2022-10-01T06:52:13.908Z,67.50
2022-10-01T06:53:13.936Z,73.12
2022-10-01T06:54:13.890Z,73.12
2022-10-01T06:55:16.676Z,56.25
2022-10-01T06:56:13.869Z,67.50
2022-10-01T06:57:13.850Z,90.00
2022-10-01T06:58:13.845Z,90.00
2022-10-01T06:59:13.841Z,90.00
2022-10-01T07:00:13.833Z,90.00
2022-10-01T07:01:13.862Z,90.00
2022-10-01T07:02:13.825Z,84.38
2022-10-01T07:03:13.781Z,95.62
2022-10-01T07:04:13.763Z,90.00
2022-10-01T07:05:13.764Z,95.62
2022-10-01T07:06:13.746Z,135.00
2022-10-01T07:07:13.719Z,180.00
2022-10-01T07:08:13.709Z,146.25
2022-10-01T07:09:13.705Z,140.62
2022-10-01T07:10:13.691Z,129.38
2022-10-01T07:11:13.718Z,163.12
2022-10-01T07:12:13.703Z,174.38
2022-10-01T07:13:13.657Z,208.12
2022-10-01T07:14:13.660Z,157.50
2022-10-01T07:15:13.627Z,168.75
2022-10-01T07:16:13.671Z,185.62
2022-10-01T07:17:13.600Z,196.88
2022-10-01T07:18:13.577Z,185.62
2022-10-01T07:19:13.568Z,191.25
2022-10-01T07:20:13.558Z,191.25
2022-10-01T07:21:13.537Z,191.25
2022-10-01T07:22:13.531Z,180.00
2022-10-01T07:23:13.578Z,219.38
2022-10-01T07:24:13.509Z,196.88
2022-10-01T07:25:13.496Z,157.50
2022-10-01T07:26:13.479Z,118.12
2022-10-01T07:27:13.502Z,112.50
2022-10-01T07:28:13.513Z,118.12
2022-10-01T07:29:13.479Z,123.75
2022-10-01T07:30:13.431Z,146.25
2022-10-01T07:31:13.527Z,157.50
2022-10-01T07:32:13.409Z,140.62
2022-10-01T07:33:13.392Z,123.75
2022-10-01T07:34:13.413Z,168.75
2022-10-01T07:35:13.378Z,146.25
2022-10-01T07:36:13.366Z,135.00
2022-10-01T07:37:13.340Z,135.00
2022-10-01T07:38:13.358Z,157.50
2022-10-01T07:39:13.316Z,151.88
2022-10-01T07:40:13.349Z,151.88
2022-10-01T07:41:13.313Z,151.88
2022-10-01T07:42:13.303Z,146.25
2022-10-01T07:43:13.281Z,168.75
2022-10-01T07:44:13.253Z,180.00
2022-10-01T07:45:13.255Z,151.88
2022-10-01T07:46:13.293Z,168.75
2022-10-01T07:47:13.230Z,174.38
2022-10-01T07:48:13.267Z,163.12
2022-10-01T07:49:13.188Z,191.25
2022-10-01T07:50:13.170Z,185.62
2022-10-01T07:51:13.164Z,185.62
2022-10-01T07:52:13.591Z,213.75
2022-10-01T07:53:13.186Z,202.50
2022-10-01T07:54:13.143Z,196.88
2022-10-01T07:55:13.150Z,230.62
2022-10-01T07:56:13.103Z,185.62
2022-10-01T07:57:13.164Z,146.25
2022-10-01T07:58:13.072Z,157.50
2022-10-01T07:59:13.076Z,157.50
2022-10-01T08:00:13.047Z,208.12
2022-10-01T08:01:13.084Z,286.88
2022-10-01T08:02:13.099Z,337.50
2022-10-01T08:03:13.052Z,478.12
2022-10-01T08:04:13.000Z,433.12
2022-10-01T08:05:13.269Z,382.50
2022-10-01T08:06:12.975Z,534.38
2022-10-01T08:07:12.977Z,534.38
2022-10-01T08:08:12.963Z,534.38
2022-10-01T08:09:12.940Z,596.25
2022-10-01T08:10:12.913Z,523.12
2022-10-01T08:11:22.135Z,534.38
2022-10-01T08:12:12.889Z,511.88
2022-10-01T08:13:24.187Z,551.25
2022-10-01T08:14:11.878Z,601.88
2022-10-01T08:15:12.868Z,511.88
2022-10-01T08:16:12.932Z,511.88
2022-10-01T08:17:12.840Z,686.25
2022-10-01T08:18:12.843Z,810.00
2022-10-01T08:19:12.802Z,838.12
2022-10-01T08:20:12.853Z,798.75
2022-10-01T08:21:12.803Z,748.12
2022-10-01T08:22:12.765Z,911.25
2022-10-01T08:23:12.769Z,945.00
2022-10-01T08:24:12.777Z,973.12
2022-10-01T08:25:12.725Z,911.25
2022-10-01T08:26:12.709Z,838.12
2022-10-01T08:27:12.705Z,781.88
2022-10-01T08:28:12.829Z,759.38
2022-10-01T08:29:16.971Z,652.50
2022-10-01T08:30:12.665Z,753.75
2022-10-01T08:31:12.689Z,939.38
2022-10-01T08:32:12.686Z,916.88
2022-10-01T08:33:12.627Z,776.25
2022-10-01T08:34:12.731Z,821.25
2022-10-01T08:35:12.615Z,832.50
2022-10-01T08:36:12.602Z,1001.25
2022-10-01T08:37:12.580Z,1091.25
2022-10-01T08:38:12.584Z,1170.00
2022-10-01T08:39:12.542Z,1310.62
2022-10-01T08:40:12.535Z,900.00
2022-10-01T08:41:12.531Z,1203.75
2022-10-01T08:42:12.506Z,1383.75
2022-10-01T08:43:12.495Z,1530.00
2022-10-01T08:44:12.734Z,1423.12
2022-10-01T08:45:12.514Z,1406.25
2022-10-01T08:46:12.488Z,2790.00
2022-10-01T08:47:12.464Z,2160.00
2022-10-01T08:48:12.484Z,1715.62
2022-10-01T08:49:12.437Z,1136.25
2022-10-01T08:50:12.411Z,1338.75
2022-10-01T08:51:12.450Z,1372.50
2022-10-01T08:52:12.639Z,1372.50
2022-10-01T08:53:12.401Z,2148.75
2022-10-01T08:54:12.353Z,3791.25
2022-10-01T08:55:12.386Z,1783.12
2022-10-01T08:56:12.327Z,1884.38
2022-10-01T08:57:12.324Z,1575.00
2022-10-01T08:58:12.305Z,1040.62
2022-10-01T08:59:12.308Z,1018.12
2022-10-01T09:00:12.286Z,1462.50
2022-10-01T09:01:12.290Z,1591.88
2022-10-01T09:02:12.254Z,1777.50
2022-10-01T09:03:12.248Z,1271.25
2022-10-01T09:04:12.255Z,1119.38
2022-10-01T09:05:12.238Z,1541.25
2022-10-01T09:06:12.197Z,1434.38
2022-10-01T09:07:12.193Z,1136.25
2022-10-01T09:08:12.185Z,1085.62
2022-10-01T09:09:12.169Z,1063.12
2022-10-01T09:10:12.187Z,1130.62
2022-10-01T09:11:12.160Z,1203.75
2022-10-01T09:12:12.121Z,1198.12
2022-10-01T09:13:12.114Z,1147.50
2022-10-01T09:14:12.099Z,978.75
2022-10-01T09:15:12.088Z,1012.50
2022-10-01T09:16:12.127Z,1046.25
2022-10-01T09:17:12.101Z,1046.25
2022-10-01T09:18:12.041Z,1198.12
2022-10-01T09:19:12.043Z,1507.50
2022-10-01T09:20:12.046Z,1732.50
2022-10-01T09:21:12.012Z,1569.38
2022-10-01T09:22:11.998Z,1518.75
2022-10-01T09:23:11.990Z,1569.38
2022-10-01T09:24:11.983Z,1507.50
2022-10-01T09:25:11.965Z,1586.25
2022-10-01T09:26:11.946Z,1923.75
2022-10-01T09:27:11.935Z,1828.12
2022-10-01T09:28:12.021Z,1726.88
2022-10-01T09:29:11.913Z,1732.50
2022-10-01T09:30:11.896Z,1783.12
2022-10-01T09:31:11.957Z,2013.75
2022-10-01T09:32:11.866Z,2345.62
2022-10-01T09:33:11.866Z,1845.00
2022-10-01T09:34:11.843Z,1878.75
2022-10-01T09:35:11.861Z,3285.00
2022-10-01T09:36:11.818Z,3577.50
2022-10-01T09:37:11.807Z,4387.50
2022-10-01T09:38:11.794Z,4348.12
2022-10-01T09:39:11.773Z,2463.75
2022-10-01T09:40:11.774Z,1591.88
2022-10-01T09:41:11.756Z,1434.38
2022-10-01T09:42:11.736Z,1451.25
2022-10-01T09:43:11.731Z,1614.38
2022-10-01T09:44:14.718Z,1305.00
2022-10-01T09:45:11.710Z,1293.75
2022-10-01T09:46:11.788Z,1417.50
2022-10-01T09:47:11.678Z,1186.88
2022-10-01T09:48:11.665Z,1012.50
2022-10-01T09:49:11.659Z,1018.12
2022-10-01T09:50:11.636Z,1119.38
2022-10-01T09:51:11.628Z,1164.38
2022-10-01T09:52:11.613Z,1080.00
2022-10-01T09:53:11.617Z,945.00
2022-10-01T09:54:11.590Z,956.25
2022-10-01T09:55:11.580Z,973.12
2022-10-01T09:56:11.588Z,978.75
2022-10-01T09:57:11.565Z,1125.00
2022-10-01T09:58:11.545Z,1096.88
2022-10-01T09:59:12.066Z,1440.00
2022-10-01T10:00:11.510Z,1811.25
2022-10-01T10:01:11.496Z,2221.88
2022-10-01T10:02:11.605Z,905.62
2022-10-01T10:03:11.559Z,714.38
2022-10-01T10:04:11.487Z,793.12
2022-10-01T10:05:11.465Z,894.38
2022-10-01T10:06:11.425Z,618.75
2022-10-01T10:07:11.427Z,523.12
2022-10-01T10:08:11.403Z,528.75
2022-10-01T10:09:11.408Z,523.12
2022-10-01T10:10:11.393Z,416.25
2022-10-01T10:11:11.376Z,365.62
2022-10-01T10:12:11.359Z,360.00
2022-10-01T10:13:11.346Z,348.75
2022-10-01T10:14:11.335Z,371.25
2022-10-01T10:15:11.346Z,365.62
2022-10-01T10:16:11.348Z,461.25
2022-10-01T10:17:11.313Z,540.00
2022-10-01T10:18:11.280Z,652.50
2022-10-01T10:19:11.315Z,838.12
2022-10-01T10:20:11.270Z,1023.75
2022-10-01T10:21:11.270Z,1170.00
2022-10-01T10:22:11.224Z,1288.12
2022-10-01T10:23:11.214Z,1378.12
2022-10-01T10:24:11.231Z,1411.88
2022-10-01T10:25:11.217Z,1423.12
2022-10-01T10:26:11.189Z,1361.25
2022-10-01T10:27:11.186Z,1260.00
2022-10-01T10:28:11.199Z,1170.00
2022-10-01T10:29:11.208Z,1136.25
2022-10-01T10:30:11.141Z,1186.88
2022-10-01T10:31:11.169Z,1288.12
2022-10-01T10:32:11.131Z,1383.75
2022-10-01T10:33:11.103Z,1468.12
2022-10-01T10:34:11.339Z,1541.25
2022-10-01T10:35:11.108Z,1620.00
2022-10-01T10:36:11.060Z,1704.38
2022-10-01T10:37:11.050Z,1805.62
2022-10-01T10:38:11.037Z,2283.75
2022-10-01T10:39:11.001Z,3268.12
2022-10-01T10:40:10.991Z,2992.50
2022-10-01T10:41:10.987Z,2227.50
2022-10-01T10:42:10.993Z,2773.12
2022-10-01T10:43:10.982Z,2435.62
2022-10-01T10:44:10.947Z,2311.88
2022-10-01T10:45:10.944Z,2272.50
2022-10-01T10:46:10.964Z,1417.50
2022-10-01T10:47:10.924Z,1490.62
2022-10-01T10:48:10.898Z,2092.50
2022-10-01T10:49:10.880Z,2176.88
2022-10-01T10:50:10.874Z,1991.25
2022-10-01T10:51:10.875Z,1378.12
2022-10-01T10:52:10.837Z,2070.00
2022-10-01T10:53:10.838Z,1496.25
2022-10-01T10:54:10.822Z,1541.25
2022-10-01T10:55:10.803Z,4241.25
2022-10-01T10:56:10.799Z,4224.38
2022-10-01T10:57:10.809Z,1985.62
2022-10-01T10:58:10.759Z,2188.12
2022-10-01T10:59:11.505Z,4342.50
2022-10-01T11:00:10.767Z,4590.00
2022-10-01T11:01:10.773Z,2851.88
2022-10-01T11:02:10.864Z,2182.50
2022-10-01T11:03:10.697Z,4196.25
2022-10-01T11:04:10.690Z,3723.75
2022-10-01T11:05:10.692Z,2767.50
2022-10-01T11:06:10.665Z,4961.25
2022-10-01T11:07:10.650Z,4950.00
2022-10-01T11:08:15.448Z,3346.88
2022-10-01T11:09:10.637Z,4533.75
2022-10-01T11:10:10.620Z,1693.12
2022-10-01T11:11:10.666Z,3746.25
2022-10-01T11:12:10.671Z,1305.00
2022-10-01T11:13:10.575Z,1091.25
2022-10-01T11:14:10.559Z,4483.12
2022-10-01T11:15:10.559Z,3701.25
2022-10-01T11:16:10.615Z,2520.00
2022-10-01T11:17:10.546Z,2098.12
2022-10-01T11:18:10.525Z,1490.62
2022-10-01T11:19:10.492Z,1513.12
2022-10-01T11:20:10.478Z,1451.25
2022-10-01T11:21:10.471Z,1243.12
2022-10-01T11:22:10.462Z,1282.50
2022-10-01T11:23:10.985Z,1344.38
2022-10-01T11:24:10.428Z,1130.62
2022-10-01T11:25:10.425Z,1355.62
2022-10-01T11:26:10.401Z,1293.75
2022-10-01T11:27:10.391Z,1485.00
2022-10-01T11:28:10.487Z,1816.88
2022-10-01T11:29:10.377Z,2205.00
2022-10-01T11:30:10.350Z,1788.75
2022-10-01T11:31:10.402Z,3217.50
2022-10-01T11:32:10.326Z,4213.12
2022-10-01T11:33:10.318Z,3656.25
2022-10-01T11:34:10.309Z,3296.25
2022-10-01T11:35:10.306Z,2098.12
2022-10-01T11:36:10.282Z,4792.50
2022-10-01T11:37:10.279Z,3268.12
2022-10-01T11:38:10.285Z,4736.25
2022-10-01T11:39:10.272Z,1580.62
2022-10-01T11:40:10.339Z,1665.00
2022-10-01T11:41:10.262Z,2880.00
2022-10-01T11:42:10.210Z,2025.00
2022-10-01T11:43:10.201Z,2413.12
2022-10-01T11:44:10.188Z,2452.50
2022-10-01T11:45:10.423Z,1873.12
2022-10-01T11:46:10.183Z,2075.62
2022-10-01T11:47:10.177Z,5045.62
2022-10-01T11:48:10.155Z,4882.50
2022-10-01T11:49:10.121Z,4798.12
2022-10-01T11:50:10.221Z,3442.50
2022-10-01T11:51:10.097Z,4629.38
2022-10-01T11:52:10.094Z,4798.12
2022-10-01T11:53:10.090Z,2430.00
2022-10-01T11:54:10.074Z,2126.25
2022-10-01T11:55:10.062Z,2221.88
2022-10-01T11:56:10.034Z,2441.25
2022-10-01T11:57:10.031Z,4258.12
2022-10-01T11:58:10.006Z,4033.12
2022-10-01T11:59:09.995Z,1586.25
2022-10-01T12:00:09.978Z,1141.88
2022-10-01T12:01:09.957Z,961.88
2022-10-01T12:02:10.077Z,888.75
2022-10-01T12:03:09.958Z,781.88
2022-10-01T12:04:09.970Z,691.88
2022-10-01T12:05:09.964Z,528.75
2022-10-01T12:06:09.925Z,348.75
2022-10-01T12:07:09.914Z,247.50
2022-10-01T12:08:10.476Z,213.75
2022-10-01T12:09:09.894Z,236.25
2022-10-01T12:10:09.910Z,258.75
2022-10-01T12:11:09.867Z,208.12
2022-10-01T12:12:09.868Z,157.50
2022-10-01T12:13:09.845Z,174.38
2022-10-01T12:14:09.824Z,230.62
2022-10-01T12:15:09.787Z,348.75
2022-10-01T12:16:09.818Z,489.38
2022-10-01T12:17:09.788Z,658.12
2022-10-01T12:18:09.743Z,900.00
2022-10-01T12:19:09.729Z,961.88
2022-10-01T12:20:09.775Z,1423.12
2022-10-01T12:21:09.737Z,1698.75
2022-10-01T12:22:09.712Z,1698.75
2022-10-01T12:23:09.707Z,1957.50
2022-10-01T12:24:09.679Z,2216.25
2022-10-01T12:25:09.675Z,2323.12
2022-10-01T12:26:09.665Z,5214.38
2022-10-01T12:27:09.643Z,5203.12
2022-10-01T12:28:09.707Z,4916.25
2022-10-01T12:29:09.606Z,4725.00
2022-10-01T12:30:09.650Z,4550.62
2022-10-01T12:31:09.755Z,4381.88
2022-10-01T12:32:09.569Z,4095.00
2022-10-01T12:33:09.547Z,2615.62
2022-10-01T12:34:09.541Z,3594.38
2022-10-01T12:35:09.549Z,4556.25
2022-10-01T12:36:09.529Z,4426.88
2022-10-01T12:37:09.497Z,4567.50
2022-10-01T12:38:09.487Z,4393.12
2022-10-01T12:39:09.480Z,4483.12
2022-10-01T12:40:09.507Z,4320.00
2022-10-01T12:41:09.456Z,4314.38
2022-10-01T12:42:09.435Z,3875.62
2022-10-01T12:43:09.426Z,3937.50
2022-10-01T12:44:09.416Z,4027.50
2022-10-01T12:45:09.422Z,3819.38
2022-10-01T12:46:09.455Z,4016.25
2022-10-01T12:47:09.389Z,3976.88
2022-10-01T12:48:09.363Z,4021.88
2022-10-01T12:49:09.345Z,4275.00
2022-10-01T12:50:09.375Z,4246.88
2022-10-01T12:51:09.320Z,4185.00
2022-10-01T12:52:09.306Z,1530.00
2022-10-01T12:53:09.304Z,4466.25
2022-10-01T12:54:12.801Z,2289.38
2022-10-01T12:55:09.274Z,3605.62
2022-10-01T12:56:09.275Z,1288.12
2022-10-01T12:57:09.242Z,1198.12
2022-10-01T12:58:09.239Z,1057.50
2022-10-01T12:59:09.225Z,1220.62
2022-10-01T13:00:09.211Z,1417.50
2022-10-01T13:01:09.233Z,4488.75
2022-10-01T13:02:09.216Z,2638.12
2022-10-01T13:03:09.165Z,1445.62
2022-10-01T13:04:09.158Z,1237.50
2022-10-01T13:05:09.149Z,1282.50
2022-10-01T13:06:09.139Z,3847.50
2022-10-01T13:07:09.139Z,1411.88
2022-10-01T13:08:09.111Z,1490.62
2022-10-01T13:09:09.093Z,1620.00
2022-10-01T13:10:09.076Z,4770.00
2022-10-01T13:11:09.083Z,2930.62
2022-10-01T13:12:09.065Z,3408.75
2022-10-01T13:13:09.040Z,3228.75
2022-10-01T13:14:09.039Z,4230.00
2022-10-01T13:15:09.024Z,1546.88
2022-10-01T13:16:09.028Z,1451.25
2022-10-01T13:17:09.004Z,1479.38
2022-10-01T13:18:08.981Z,1181.25
2022-10-01T13:19:08.965Z,894.38
2022-10-01T13:20:08.963Z,748.12
2022-10-01T13:21:08.941Z,1316.25
2022-10-01T13:22:08.940Z,1591.88
2022-10-01T13:23:08.924Z,1203.75
2022-10-01T13:24:08.901Z,939.38
2022-10-01T13:25:08.888Z,1046.25
2022-10-01T13:26:08.882Z,1080.00
2022-10-01T13:27:08.867Z,961.88
2022-10-01T13:28:08.941Z,933.75
2022-10-01T13:29:08.861Z,922.50
2022-10-01T13:30:08.821Z,832.50
2022-10-01T13:31:08.856Z,753.75
2022-10-01T13:32:08.800Z,765.00
2022-10-01T13:33:08.785Z,759.38
2022-10-01T13:34:08.770Z,720.00
2022-10-01T13:35:08.779Z,753.75
2022-10-01T13:36:08.750Z,815.62
2022-10-01T13:37:08.734Z,798.75
2022-10-01T13:38:08.733Z,736.88
2022-10-01T13:39:08.720Z,703.12
2022-10-01T13:40:08.700Z,731.25
2022-10-01T13:41:08.701Z,804.38
2022-10-01T13:42:08.680Z,928.12
2022-10-01T13:43:08.655Z,956.25
2022-10-01T13:44:08.639Z,1001.25
2022-10-01T13:45:08.635Z,1800.00
2022-10-01T13:46:08.673Z,2801.25
2022-10-01T13:47:08.618Z,995.62
2022-10-01T13:48:08.585Z,871.88
2022-10-01T13:49:08.717Z,995.62
2022-10-01T13:50:08.571Z,933.75
2022-10-01T13:51:08.555Z,900.00
2022-10-01T13:52:08.533Z,787.50
2022-10-01T13:53:08.559Z,725.62
2022-10-01T13:54:08.515Z,613.12
2022-10-01T13:55:08.505Z,725.62
2022-10-01T13:56:08.484Z,922.50
2022-10-01T13:57:08.479Z,781.88
2022-10-01T13:58:08.469Z,748.12
2022-10-01T13:59:08.681Z,866.25
2022-10-01T14:00:08.467Z,2818.12
2022-10-01T14:01:13.889Z,2998.12
2022-10-01T14:02:08.510Z,2154.38